sensor_id;sensor_type;location;lat;lon;timestamp;temperature;humidity
49549;DHT22;35450;44.518;7.466;2022-09-17T00:02:51;21.10;73.30
49549;DHT22;35450;44.518;7.466;2022-09-17T00:06:04;21.00;73.40
49549;DHT22;35450;44.518;7.466;2022-09-17T00:09:08;21.00;73.20
49549;DHT22;35450;44.518;7.466;2022-09-17T00:12:13;21.00;74.50
49549;DHT22;35450;44.518;7.466;2022-09-17T00:15:20;20.80;74.50
49549;DHT22;35450;44.518;7.466;2022-09-17T00:18:24;20.80;75.20
49549;DHT22;35450;44.518;7.466;2022-09-17T00:21:28;20.70;76.00
49549;DHT22;35450;44.518;7.466;2022-09-17T00:24:32;20.80;76.40
49549;DHT22;35450;44.518;7.466;2022-09-17T00:27:36;20.80;77.80
49549;DHT22;35450;44.518;7.466;2022-09-17T00:30:44;20.80;78.60
49549;DHT22;35450;44.518;7.466;2022-09-17T00:33:49;20.80;79.40
49549;DHT22;35450;44.518;7.466;2022-09-17T00:36:53;20.80;79.60
49549;DHT22;35450;44.518;7.466;2022-09-17T00:39:57;20.90;80.30
49549;DHT22;35450;44.518;7.466;2022-09-17T00:43:01;20.90;81.00
49549;DHT22;35450;44.518;7.466;2022-09-17T00:46:28;20.90;82.10
49549;DHT22;35450;44.518;7.466;2022-09-17T00:49:34;20.90;83.70
49549;DHT22;35450;44.518;7.466;2022-09-17T00:52:45;21.00;84.50
49549;DHT22;35450;44.518;7.466;2022-09-17T00:55:58;21.00;84.70
49549;DHT22;35450;44.518;7.466;2022-09-17T00:59:04;20.80;84.70
49549;DHT22;35450;44.518;7.466;2022-09-17T01:02:09;20.70;85.50
49549;DHT22;35450;44.518;7.466;2022-09-17T01:05:14;20.70;85.70
49549;DHT22;35450;44.518;7.466;2022-09-17T01:15:45;20.40;85.00
49549;DHT22;35450;44.518;7.466;2022-09-17T01:19:46;20.50;85.20
49549;DHT22;35450;44.518;7.466;2022-09-17T01:23:06;20.50;85.00
49549;DHT22;35450;44.518;7.466;2022-09-17T01:30:17;20.10;81.90
49549;DHT22;35450;44.518;7.466;2022-09-17T01:33:26;20.20;82.10
49549;DHT22;35450;44.518;7.466;2022-09-17T01:43:43;20.30;82.10
49549;DHT22;35450;44.518;7.466;2022-09-17T01:46:53;20.20;82.50
49549;DHT22;35450;44.518;7.466;2022-09-17T01:53:40;20.00;81.40
49549;DHT22;35450;44.518;7.466;2022-09-17T01:56:59;19.80;80.50
49549;DHT22;35450;44.518;7.466;2022-09-17T02:00:10;19.80;78.10
49549;DHT22;35450;44.518;7.466;2022-09-17T02:03:22;19.90;77.40
49549;DHT22;35450;44.518;7.466;2022-09-17T02:06:32;20.00;76.10
49549;DHT22;35450;44.518;7.466;2022-09-17T02:09:44;20.10;76.70
49549;DHT22;35450;44.518;7.466;2022-09-17T02:12:55;20.10;76.70
49549;DHT22;35450;44.518;7.466;2022-09-17T02:16:26;20.20;76.00
49549;DHT22;35450;44.518;7.466;2022-09-17T02:19:33;20.10;75.70
49549;DHT22;35450;44.518;7.466;2022-09-17T02:22:51;20.10;76.00
49549;DHT22;35450;44.518;7.466;2022-09-17T02:26:06;20.00;75.80
49549;DHT22;35450;44.518;7.466;2022-09-17T02:29:25;20.10;76.00
49549;DHT22;35450;44.518;7.466;2022-09-17T02:32:32;20.10;77.00
49549;DHT22;35450;44.518;7.466;2022-09-17T02:35:37;20.20;77.30
49549;DHT22;35450;44.518;7.466;2022-09-17T02:38:43;20.10;76.70
49549;DHT22;35450;44.518;7.466;2022-09-17T02:52:15;20.10;75.90
49549;DHT22;35450;44.518;7.466;2022-09-17T02:58:43;20.00;76.70
49549;DHT22;35450;44.518;7.466;2022-09-17T03:05:08;20.00;75.30
49549;DHT22;35450;44.518;7.466;2022-09-17T03:08:13;20.10;75.60
49549;DHT22;35450;44.518;7.466;2022-09-17T03:11:19;20.00;76.20
49549;DHT22;35450;44.518;7.466;2022-09-17T03:14:23;19.90;76.20
49549;DHT22;35450;44.518;7.466;2022-09-17T03:17:27;20.00;75.40
49549;DHT22;35450;44.518;7.466;2022-09-17T03:20:31;20.10;75.30
49549;DHT22;35450;44.518;7.466;2022-09-17T03:23:35;20.00;75.90
49549;DHT22;35450;44.518;7.466;2022-09-17T03:26:39;19.90;76.20
49549;DHT22;35450;44.518;7.466;2022-09-17T03:29:43;19.90;76.40
49549;DHT22;35450;44.518;7.466;2022-09-17T03:32:47;19.60;75.10
49549;DHT22;35450;44.518;7.466;2022-09-17T03:35:51;19.70;75.20
49549;DHT22;35450;44.518;7.466;2022-09-17T03:38:55;19.60;77.70
49549;DHT22;35450;44.518;7.466;2022-09-17T03:42:00;19.40;76.40
49549;DHT22;35450;44.518;7.466;2022-09-17T03:45:04;19.10;76.90
49549;DHT22;35450;44.518;7.466;2022-09-17T03:48:08;19.20;77.30
49549;DHT22;35450;44.518;7.466;2022-09-17T03:51:13;19.10;77.10
49549;DHT22;35450;44.518;7.466;2022-09-17T03:54:17;19.00;77.70
49549;DHT22;35450;44.518;7.466;2022-09-17T03:57:21;18.90;78.00
49549;DHT22;35450;44.518;7.466;2022-09-17T04:00:25;18.80;78.30
49549;DHT22;35450;44.518;7.466;2022-09-17T04:03:29;18.70;78.50
49549;DHT22;35450;44.518;7.466;2022-09-17T04:06:33;18.50;76.90
49549;DHT22;35450;44.518;7.466;2022-09-17T04:09:37;18.60;77.10
49549;DHT22;35450;44.518;7.466;2022-09-17T04:12:41;18.30;74.20
49549;DHT22;35450;44.518;7.466;2022-09-17T04:15:46;18.40;73.60
49549;DHT22;35450;44.518;7.466;2022-09-17T04:18:50;18.20;73.40
49549;DHT22;35450;44.518;7.466;2022-09-17T04:21:55;18.10;72.30
49549;DHT22;35450;44.518;7.466;2022-09-17T04:24:58;18.30;70.00
49549;DHT22;35450;44.518;7.466;2022-09-17T04:28:02;18.30;66.80
49549;DHT22;35450;44.518;7.466;2022-09-17T04:31:07;18.30;67.30
49549;DHT22;35450;44.518;7.466;2022-09-17T04:34:11;18.30;64.70
49549;DHT22;35450;44.518;7.466;2022-09-17T04:37:15;18.10;65.60
49549;DHT22;35450;44.518;7.466;2022-09-17T04:40:20;18.20;62.90
49549;DHT22;35450;44.518;7.466;2022-09-17T04:43:24;18.10;59.90
49549;DHT22;35450;44.518;7.466;2022-09-17T04:46:28;18.20;57.50
49549;DHT22;35450;44.518;7.466;2022-09-17T04:49:32;18.10;57.70
49549;DHT22;35450;44.518;7.466;2022-09-17T04:52:40;18.20;56.50
49549;DHT22;35450;44.518;7.466;2022-09-17T04:55:44;18.50;50.60
49549;DHT22;35450;44.518;7.466;2022-09-17T04:58:48;18.50;53.50
49549;DHT22;35450;44.518;7.466;2022-09-17T05:01:52;18.50;54.90
49549;DHT22;35450;44.518;7.466;2022-09-17T05:04:56;18.40;60.30
49549;DHT22;35450;44.518;7.466;2022-09-17T05:08:00;18.40;62.80
49549;DHT22;35450;44.518;7.466;2022-09-17T05:11:04;18.30;63.40
49549;DHT22;35450;44.518;7.466;2022-09-17T05:14:08;18.20;63.90
49549;DHT22;35450;44.518;7.466;2022-09-17T05:17:12;18.30;60.80
49549;DHT22;35450;44.518;7.466;2022-09-17T05:20:16;18.30;61.10
49549;DHT22;35450;44.518;7.466;2022-09-17T05:23:20;18.50;62.00
49549;DHT22;35450;44.518;7.466;2022-09-17T05:26:24;18.40;63.80
49549;DHT22;35450;44.518;7.466;2022-09-17T05:29:28;18.30;63.00
49549;DHT22;35450;44.518;7.466;2022-09-17T05:32:32;18.10;64.00
49549;DHT22;35450;44.518;7.466;2022-09-17T05:35:36;18.30;65.50
49549;DHT22;35450;44.518;7.466;2022-09-17T05:38:40;18.20;65.40
49549;DHT22;35450;44.518;7.466;2022-09-17T05:41:44;18.20;66.40
49549;DHT22;35450;44.518;7.466;2022-09-17T05:44:48;18.00;66.60
49549;DHT22;35450;44.518;7.466;2022-09-17T05:47:56;18.00;65.70
49549;DHT22;35450;44.518;7.466;2022-09-17T05:51:01;18.30;44.00
49549;DHT22;35450;44.518;7.466;2022-09-17T05:54:05;18.50;42.30
49549;DHT22;35450;44.518;7.466;2022-09-17T05:57:09;18.60;39.40
49549;DHT22;35450;44.518;7.466;2022-09-17T06:00:14;18.80;40.50
49549;DHT22;35450;44.518;7.466;2022-09-17T06:03:20;18.80;39.60
49549;DHT22;35450;44.518;7.466;2022-09-17T06:06:27;18.90;38.30
49549;DHT22;35450;44.518;7.466;2022-09-17T06:09:36;18.90;37.90
49549;DHT22;35450;44.518;7.466;2022-09-17T06:12:40;19.00;37.30
49549;DHT22;35450;44.518;7.466;2022-09-17T06:15:54;19.00;36.50
49549;DHT22;35450;44.518;7.466;2022-09-17T06:18:57;18.90;37.90
49549;DHT22;35450;44.518;7.466;2022-09-17T06:22:02;18.90;36.70
49549;DHT22;35450;44.518;7.466;2022-09-17T06:25:07;18.90;36.80
49549;DHT22;35450;44.518;7.466;2022-09-17T06:28:11;19.00;37.20
49549;DHT22;35450;44.518;7.466;2022-09-17T06:31:15;19.00;39.20
49549;DHT22;35450;44.518;7.466;2022-09-17T06:34:19;19.00;37.20
49549;DHT22;35450;44.518;7.466;2022-09-17T06:37:27;18.90;36.80
49549;DHT22;35450;44.518;7.466;2022-09-17T06:40:32;18.90;37.20
49549;DHT22;35450;44.518;7.466;2022-09-17T06:43:36;19.00;36.20
49549;DHT22;35450;44.518;7.466;2022-09-17T06:46:41;19.00;36.40
49549;DHT22;35450;44.518;7.466;2022-09-17T06:49:46;19.10;36.90
49549;DHT22;35450;44.518;7.466;2022-09-17T06:52:52;19.10;36.80
49549;DHT22;35450;44.518;7.466;2022-09-17T06:55:59;19.20;37.70
49549;DHT22;35450;44.518;7.466;2022-09-17T06:59:03;19.20;37.30
49549;DHT22;35450;44.518;7.466;2022-09-17T07:02:08;19.20;37.50
49549;DHT22;35450;44.518;7.466;2022-09-17T07:05:12;19.20;37.70
49549;DHT22;35450;44.518;7.466;2022-09-17T07:08:16;19.30;37.00
49549;DHT22;35450;44.518;7.466;2022-09-17T07:11:21;19.30;36.50
49549;DHT22;35450;44.518;7.466;2022-09-17T07:14:24;19.30;36.20
49549;DHT22;35450;44.518;7.466;2022-09-17T07:17:28;19.40;36.90
49549;DHT22;35450;44.518;7.466;2022-09-17T07:20:32;19.50;35.80
49549;DHT22;35450;44.518;7.466;2022-09-17T07:23:36;19.50;38.50
49549;DHT22;35450;44.518;7.466;2022-09-17T07:26:40;19.50;37.90
49549;DHT22;35450;44.518;7.466;2022-09-17T07:29:44;19.60;37.60
49549;DHT22;35450;44.518;7.466;2022-09-17T07:32:48;19.70;37.00
49549;DHT22;35450;44.518;7.466;2022-09-17T07:35:56;19.70;37.20
49549;DHT22;35450;44.518;7.466;2022-09-17T07:39:00;19.70;37.90
49549;DHT22;35450;44.518;7.466;2022-09-17T07:42:04;19.70;38.20
49549;DHT22;35450;44.518;7.466;2022-09-17T07:45:08;19.80;37.40
49549;DHT22;35450;44.518;7.466;2022-09-17T07:48:13;19.90;38.30
49549;DHT22;35450;44.518;7.466;2022-09-17T07:51:19;19.90;38.60
49549;DHT22;35450;44.518;7.466;2022-09-17T07:54:24;19.90;38.80
49549;DHT22;35450;44.518;7.466;2022-09-17T07:57:28;19.90;38.20
49549;DHT22;35450;44.518;7.466;2022-09-17T08:00:32;19.90;38.30
49549;DHT22;35450;44.518;7.466;2022-09-17T08:03:38;19.90;37.50
49549;DHT22;35450;44.518;7.466;2022-09-17T08:06:42;19.90;37.10
49549;DHT22;35450;44.518;7.466;2022-09-17T08:09:50;19.90;37.90
49549;DHT22;35450;44.518;7.466;2022-09-17T08:12:56;19.90;38.10
49549;DHT22;35450;44.518;7.466;2022-09-17T08:16:08;19.90;37.30
49549;DHT22;35450;44.518;7.466;2022-09-17T08:19:13;20.00;37.30
49549;DHT22;35450;44.518;7.466;2022-09-17T08:22:17;20.00;35.70
49549;DHT22;35450;44.518;7.466;2022-09-17T08:25:21;20.10;36.80
49549;DHT22;35450;44.518;7.466;2022-09-17T08:28:27;20.10;35.40
49549;DHT22;35450;44.518;7.466;2022-09-17T08:31:31;20.20;35.50
49549;DHT22;35450;44.518;7.466;2022-09-17T08:34:35;20.10;35.50
49549;DHT22;35450;44.518;7.466;2022-09-17T08:37:39;20.10;36.50
49549;DHT22;35450;44.518;7.466;2022-09-17T08:44:24;20.10;35.30
49549;DHT22;35450;44.518;7.466;2022-09-17T08:47:33;20.20;35.70
49549;DHT22;35450;44.518;7.466;2022-09-17T08:50:40;20.20;36.50
49549;DHT22;35450;44.518;7.466;2022-09-17T09:00:44;20.30;35.10
49549;DHT22;35450;44.518;7.466;2022-09-17T09:07:26;20.40;33.20
49549;DHT22;35450;44.518;7.466;2022-09-17T09:14:21;20.50;32.80
49549;DHT22;35450;44.518;7.466;2022-09-17T09:17:34;20.50;33.00
49549;DHT22;35450;44.518;7.466;2022-09-17T09:24:24;20.60;31.60
49549;DHT22;35450;44.518;7.466;2022-09-17T09:34:03;20.60;32.30
49549;DHT22;35450;44.518;7.466;2022-09-17T09:37:26;20.60;31.90
49549;DHT22;35450;44.518;7.466;2022-09-17T09:40:43;20.70;33.70
49549;DHT22;35450;44.518;7.466;2022-09-17T09:44:03;20.80;33.30
49549;DHT22;35450;44.518;7.466;2022-09-17T09:57:17;20.90;31.80
49549;DHT22;35450;44.518;7.466;2022-09-17T10:00:37;20.90;30.80
49549;DHT22;35450;44.518;7.466;2022-09-17T10:03:43;20.90;30.70
49549;DHT22;35450;44.518;7.466;2022-09-17T10:06:54;20.90;31.10
49549;DHT22;35450;44.518;7.466;2022-09-17T10:10:08;21.00;31.10
49549;DHT22;35450;44.518;7.466;2022-09-17T10:13:13;21.00;31.40
49549;DHT22;35450;44.518;7.466;2022-09-17T10:16:23;21.10;31.60
49549;DHT22;35450;44.518;7.466;2022-09-17T10:19:28;21.10;31.00
49549;DHT22;35450;44.518;7.466;2022-09-17T10:22:34;21.20;30.50
49549;DHT22;35450;44.518;7.466;2022-09-17T10:25:41;21.10;30.30
49549;DHT22;35450;44.518;7.466;2022-09-17T10:28:52;21.10;29.60
49549;DHT22;35450;44.518;7.466;2022-09-17T10:31:59;21.10;29.60
49549;DHT22;35450;44.518;7.466;2022-09-17T10:41:31;21.20;31.30
49549;DHT22;35450;44.518;7.466;2022-09-17T10:44:36;21.30;30.00
49549;DHT22;35450;44.518;7.466;2022-09-17T10:47:41;21.30;31.00
49549;DHT22;35450;44.518;7.466;2022-09-17T10:50:51;21.30;30.00
49549;DHT22;35450;44.518;7.466;2022-09-17T10:57:20;21.30;30.00
49549;DHT22;35450;44.518;7.466;2022-09-17T11:03:44;21.40;31.00
49549;DHT22;35450;44.518;7.466;2022-09-17T11:10:56;21.50;30.00
49549;DHT22;35450;44.518;7.466;2022-09-17T11:27:34;21.60;29.40
49549;DHT22;35450;44.518;7.466;2022-09-17T11:40:31;21.70;29.80
49549;DHT22;35450;44.518;7.466;2022-09-17T11:44:06;21.70;30.00
49549;DHT22;35450;44.518;7.466;2022-09-17T11:47:19;21.80;29.00
49549;DHT22;35450;44.518;7.466;2022-09-17T11:50:46;21.80;30.20
49549;DHT22;35450;44.518;7.466;2022-09-17T11:57:32;21.80;29.40
49549;DHT22;35450;44.518;7.466;2022-09-17T12:00:51;21.80;29.60
49549;DHT22;35450;44.518;7.466;2022-09-17T12:04:00;21.80;29.50
49549;DHT22;35450;44.518;7.466;2022-09-17T12:10:41;21.90;29.20
49549;DHT22;35450;44.518;7.466;2022-09-17T12:14:02;21.80;29.10
49549;DHT22;35450;44.518;7.466;2022-09-17T12:17:15;21.90;29.80
49549;DHT22;35450;44.518;7.466;2022-09-17T12:20:26;21.90;29.20
49549;DHT22;35450;44.518;7.466;2022-09-17T12:30:15;22.00;29.30
49549;DHT22;35450;44.518;7.466;2022-09-17T12:33:36;22.10;29.50
49549;DHT22;35450;44.518;7.466;2022-09-17T12:37:06;22.10;29.90
49549;DHT22;35450;44.518;7.466;2022-09-17T12:40:45;22.10;29.60
49549;DHT22;35450;44.518;7.466;2022-09-17T12:44:44;22.10;29.90
49549;DHT22;35450;44.518;7.466;2022-09-17T13:02:03;22.20;29.50
49549;DHT22;35450;44.518;7.466;2022-09-17T13:05:30;22.20;29.50
49549;DHT22;35450;44.518;7.466;2022-09-17T13:12:33;22.40;30.60
49549;DHT22;35450;44.518;7.466;2022-09-17T13:15:52;22.40;30.10
49549;DHT22;35450;44.518;7.466;2022-09-17T13:19:06;22.40;29.90
49549;DHT22;35450;44.518;7.466;2022-09-17T13:22:18;22.50;29.60
49549;DHT22;35450;44.518;7.466;2022-09-17T13:25:23;22.50;29.60
49549;DHT22;35450;44.518;7.466;2022-09-17T13:28:41;22.40;29.50
49549;DHT22;35450;44.518;7.466;2022-09-17T13:31:46;22.40;29.60
49549;DHT22;35450;44.518;7.466;2022-09-17T13:34:51;22.40;29.30
49549;DHT22;35450;44.518;7.466;2022-09-17T13:37:57;22.50;29.40
49549;DHT22;35450;44.518;7.466;2022-09-17T13:41:19;22.50;29.70
49549;DHT22;35450;44.518;7.466;2022-09-17T13:44:24;22.50;29.50
49549;DHT22;35450;44.518;7.466;2022-09-17T13:47:37;22.60;29.60
49549;DHT22;35450;44.518;7.466;2022-09-17T13:50:43;22.70;30.00
49549;DHT22;35450;44.518;7.466;2022-09-17T13:53:52;22.70;29.80
49549;DHT22;35450;44.518;7.466;2022-09-17T13:57:08;22.70;29.50
49549;DHT22;35450;44.518;7.466;2022-09-17T14:03:54;22.70;29.40
49549;DHT22;35450;44.518;7.466;2022-09-17T14:06:59;22.80;29.80
49549;DHT22;35450;44.518;7.466;2022-09-17T14:13:33;22.80;29.80
49549;DHT22;35450;44.518;7.466;2022-09-17T14:19:48;22.90;30.20
49549;DHT22;35450;44.518;7.466;2022-09-17T14:22:58;23.00;29.90
49549;DHT22;35450;44.518;7.466;2022-09-17T14:26:05;23.00;30.00
49549;DHT22;35450;44.518;7.466;2022-09-17T14:36:13;23.20;29.90
49549;DHT22;35450;44.518;7.466;2022-09-17T14:39:24;23.30;30.00
49549;DHT22;35450;44.518;7.466;2022-09-17T14:42:33;23.30;29.50
49549;DHT22;35450;44.518;7.466;2022-09-17T14:45:41;23.30;29.50
49549;DHT22;35450;44.518;7.466;2022-09-17T14:48:45;23.30;29.20
49549;DHT22;35450;44.518;7.466;2022-09-17T14:51:57;23.40;29.50
49549;DHT22;35450;44.518;7.466;2022-09-17T14:55:29;23.50;29.30
49549;DHT22;35450;44.518;7.466;2022-09-17T14:58:39;23.60;29.20
49549;DHT22;35450;44.518;7.466;2022-09-17T15:01:47;23.50;29.80
49549;DHT22;35450;44.518;7.466;2022-09-17T15:04:52;23.60;29.30
49549;DHT22;35450;44.518;7.466;2022-09-17T15:08:15;23.70;29.60
49549;DHT22;35450;44.518;7.466;2022-09-17T15:11:19;23.80;29.40
49549;DHT22;35450;44.518;7.466;2022-09-17T15:14:32;23.80;29.50
49549;DHT22;35450;44.518;7.466;2022-09-17T15:17:37;23.90;29.50
49549;DHT22;35450;44.518;7.466;2022-09-17T15:20:41;24.00;29.30
49549;DHT22;35450;44.518;7.466;2022-09-17T15:23:50;24.10;31.90
49549;DHT22;35450;44.518;7.466;2022-09-17T15:26:57;24.00;32.60
49549;DHT22;35450;44.518;7.466;2022-09-17T15:30:13;24.10;32.80
49549;DHT22;35450;44.518;7.466;2022-09-17T15:33:18;24.20;32.60
49549;DHT22;35450;44.518;7.466;2022-09-17T15:36:24;24.30;32.50
49549;DHT22;35450;44.518;7.466;2022-09-17T15:39:38;24.50;31.90
49549;DHT22;35450;44.518;7.466;2022-09-17T15:42:51;24.60;31.80
49549;DHT22;35450;44.518;7.466;2022-09-17T15:45:55;24.70;31.60
49549;DHT22;35450;44.518;7.466;2022-09-17T15:49:01;24.70;32.10
49549;DHT22;35450;44.518;7.466;2022-09-17T15:59:37;24.80;32.00
49549;DHT22;35450;44.518;7.466;2022-09-17T16:02:27;24.90;31.90
49549;DHT22;35450;44.518;7.466;2022-09-17T16:05:44;24.80;32.60
49549;DHT22;35450;44.518;7.466;2022-09-17T16:08:55;24.80;32.10
49549;DHT22;35450;44.518;7.466;2022-09-17T16:11:59;24.90;32.10
49549;DHT22;35450;44.518;7.466;2022-09-17T16:15:05;24.80;32.00
49549;DHT22;35450;44.518;7.466;2022-09-17T16:18:11;24.70;32.10
49549;DHT22;35450;44.518;7.466;2022-09-17T16:21:17;24.70;31.70
49549;DHT22;35450;44.518;7.466;2022-09-17T16:24:22;24.70;32.10
49549;DHT22;35450;44.518;7.466;2022-09-17T16:27:29;24.80;32.20
49549;DHT22;35450;44.518;7.466;2022-09-17T16:30:35;24.70;32.10
49549;DHT22;35450;44.518;7.466;2022-09-17T16:33:39;24.60;33.20
49549;DHT22;35450;44.518;7.466;2022-09-17T16:36:44;24.20;34.10
49549;DHT22;35450;44.518;7.466;2022-09-17T16:39:49;24.00;35.60
49549;DHT22;35450;44.518;7.466;2022-09-17T16:42:53;23.80;35.10
49549;DHT22;35450;44.518;7.466;2022-09-17T16:46:02;23.40;35.10
49549;DHT22;35450;44.518;7.466;2022-09-17T16:49:06;23.30;35.00
49549;DHT22;35450;44.518;7.466;2022-09-17T16:52:10;23.00;34.90
49549;DHT22;35450;44.518;7.466;2022-09-17T16:55:16;22.70;34.90
49549;DHT22;35450;44.518;7.466;2022-09-17T16:58:20;22.50;35.50
49549;DHT22;35450;44.518;7.466;2022-09-17T17:01:24;22.30;35.90
49549;DHT22;35450;44.518;7.466;2022-09-17T17:04:28;22.10;35.90
49549;DHT22;35450;44.518;7.466;2022-09-17T17:07:34;22.00;36.20
49549;DHT22;35450;44.518;7.466;2022-09-17T17:10:38;22.10;36.50
49549;DHT22;35450;44.518;7.466;2022-09-17T17:13:42;22.00;36.90
49549;DHT22;35450;44.518;7.466;2022-09-17T17:16:46;21.80;37.90
49549;DHT22;35450;44.518;7.466;2022-09-17T17:19:50;21.70;36.90
49549;DHT22;35450;44.518;7.466;2022-09-17T17:22:54;21.50;37.00
49549;DHT22;35450;44.518;7.466;2022-09-17T17:25:58;21.50;36.60
49549;DHT22;35450;44.518;7.466;2022-09-17T17:29:02;21.70;38.30
49549;DHT22;35450;44.518;7.466;2022-09-17T17:32:08;21.50;40.90
49549;DHT22;35450;44.518;7.466;2022-09-17T17:35:12;21.30;40.20
49549;DHT22;35450;44.518;7.466;2022-09-17T17:38:17;21.30;39.80
49549;DHT22;35450;44.518;7.466;2022-09-17T17:41:21;21.20;41.10
49549;DHT22;35450;44.518;7.466;2022-09-17T17:44:28;21.10;41.30
49549;DHT22;35450;44.518;7.466;2022-09-17T17:47:32;21.10;37.60
49549;DHT22;35450;44.518;7.466;2022-09-17T17:50:36;21.10;38.20
49549;DHT22;35450;44.518;7.466;2022-09-17T17:53:43;21.10;37.50
49549;DHT22;35450;44.518;7.466;2022-09-17T17:56:48;21.10;39.40
49549;DHT22;35450;44.518;7.466;2022-09-17T17:59:52;21.00;38.70
49549;DHT22;35450;44.518;7.466;2022-09-17T18:02:56;20.80;38.70
49549;DHT22;35450;44.518;7.466;2022-09-17T18:06:03;20.80;38.70
49549;DHT22;35450;44.518;7.466;2022-09-17T18:09:08;20.70;39.80
49549;DHT22;35450;44.518;7.466;2022-09-17T18:12:12;20.60;40.20
49549;DHT22;35450;44.518;7.466;2022-09-17T18:15:16;20.50;41.40
49549;DHT22;35450;44.518;7.466;2022-09-17T18:18:21;20.40;41.20
49549;DHT22;35450;44.518;7.466;2022-09-17T18:21:25;20.40;41.40
49549;DHT22;35450;44.518;7.466;2022-09-17T18:24:29;20.40;41.80
49549;DHT22;35450;44.518;7.466;2022-09-17T18:27:33;20.40;42.30
49549;DHT22;35450;44.518;7.466;2022-09-17T18:30:37;20.40;41.70
49549;DHT22;35450;44.518;7.466;2022-09-17T18:33:41;20.30;42.00
49549;DHT22;35450;44.518;7.466;2022-09-17T18:36:45;20.30;42.10
49549;DHT22;35450;44.518;7.466;2022-09-17T18:39:49;20.30;42.10
49549;DHT22;35450;44.518;7.466;2022-09-17T18:42:53;20.20;42.20
49549;DHT22;35450;44.518;7.466;2022-09-17T18:45:57;20.10;42.80
49549;DHT22;35450;44.518;7.466;2022-09-17T18:49:02;20.10;42.70
49549;DHT22;35450;44.518;7.466;2022-09-17T18:52:06;20.10;42.90
49549;DHT22;35450;44.518;7.466;2022-09-17T18:55:10;20.20;42.50
49549;DHT22;35450;44.518;7.466;2022-09-17T18:58:14;20.10;43.80
49549;DHT22;35450;44.518;7.466;2022-09-17T19:01:20;20.10;43.20
49549;DHT22;35450;44.518;7.466;2022-09-17T19:04:25;20.10;43.70
49549;DHT22;35450;44.518;7.466;2022-09-17T19:07:30;20.10;44.60
49549;DHT22;35450;44.518;7.466;2022-09-17T19:10:34;20.10;44.80
49549;DHT22;35450;44.518;7.466;2022-09-17T19:13:44;19.90;44.80
49549;DHT22;35450;44.518;7.466;2022-09-17T19:16:48;19.90;44.40
49549;DHT22;35450;44.518;7.466;2022-09-17T19:19:52;19.90;45.10
49549;DHT22;35450;44.518;7.466;2022-09-17T19:22:55;20.00;44.50
49549;DHT22;35450;44.518;7.466;2022-09-17T19:26:14;19.80;45.10
49549;DHT22;35450;44.518;7.466;2022-09-17T19:29:18;19.70;45.40
49549;DHT22;35450;44.518;7.466;2022-09-17T19:32:22;19.70;45.00
49549;DHT22;35450;44.518;7.466;2022-09-17T19:35:26;19.70;45.20
49549;DHT22;35450;44.518;7.466;2022-09-17T19:38:30;19.70;45.20
49549;DHT22;35450;44.518;7.466;2022-09-17T19:41:34;19.60;45.40
49549;DHT22;35450;44.518;7.466;2022-09-17T19:44:39;19.40;45.60
49549;DHT22;35450;44.518;7.466;2022-09-17T19:47:43;19.30;45.60
49549;DHT22;35450;44.518;7.466;2022-09-17T19:50:51;19.20;47.20
49549;DHT22;35450;44.518;7.466;2022-09-17T19:53:56;19.00;47.60
49549;DHT22;35450;44.518;7.466;2022-09-17T19:57:00;19.00;46.70
49549;DHT22;35450;44.518;7.466;2022-09-17T20:00:05;19.10;46.50
49549;DHT22;35450;44.518;7.466;2022-09-17T20:03:14;19.10;46.20
49549;DHT22;35450;44.518;7.466;2022-09-17T20:06:18;19.20;46.00
49549;DHT22;35450;44.518;7.466;2022-09-17T20:09:26;19.10;45.80
49549;DHT22;35450;44.518;7.466;2022-09-17T20:12:30;19.10;45.90
49549;DHT22;35450;44.518;7.466;2022-09-17T20:15:35;19.20;45.70
49549;DHT22;35450;44.518;7.466;2022-09-17T20:18:39;19.20;46.00
49549;DHT22;35450;44.518;7.466;2022-09-17T20:21:44;19.20;45.80
49549;DHT22;35450;44.518;7.466;2022-09-17T20:24:48;19.20;45.50
49549;DHT22;35450;44.518;7.466;2022-09-17T20:27:52;19.20;45.80
49549;DHT22;35450;44.518;7.466;2022-09-17T20:31:07;19.20;45.70
49549;DHT22;35450;44.518;7.466;2022-09-17T20:34:11;19.20;45.80
49549;DHT22;35450;44.518;7.466;2022-09-17T20:37:15;19.10;45.60
49549;DHT22;35450;44.518;7.466;2022-09-17T20:40:19;19.00;46.10
49549;DHT22;35450;44.518;7.466;2022-09-17T20:43:23;19.00;46.20
49549;DHT22;35450;44.518;7.466;2022-09-17T20:46:27;19.10;46.00
49549;DHT22;35450;44.518;7.466;2022-09-17T20:49:31;19.00;45.90
49549;DHT22;35450;44.518;7.466;2022-09-17T20:52:35;18.90;46.40
49549;DHT22;35450;44.518;7.466;2022-09-17T20:55:39;18.90;46.00
49549;DHT22;35450;44.518;7.466;2022-09-17T20:58:45;19.10;46.30
49549;DHT22;35450;44.518;7.466;2022-09-17T21:01:54;18.90;47.10
49549;DHT22;35450;44.518;7.466;2022-09-17T21:04:58;18.90;46.60
49549;DHT22;35450;44.518;7.466;2022-09-17T21:08:02;18.90;47.80
49549;DHT22;35450;44.518;7.466;2022-09-17T21:11:06;18.80;49.20
49549;DHT22;35450;44.518;7.466;2022-09-17T21:14:11;18.80;46.70
49549;DHT22;35450;44.518;7.466;2022-09-17T21:17:15;18.90;46.70
49549;DHT22;35450;44.518;7.466;2022-09-17T21:20:19;19.00;46.40
49549;DHT22;35450;44.518;7.466;2022-09-17T21:23:28;18.90;46.50
49549;DHT22;35450;44.518;7.466;2022-09-17T21:26:33;18.90;46.10
49549;DHT22;35450;44.518;7.466;2022-09-17T21:29:37;18.90;45.90
49549;DHT22;35450;44.518;7.466;2022-09-17T21:32:41;18.80;45.40
49549;DHT22;35450;44.518;7.466;2022-09-17T21:35:45;18.80;47.00
49549;DHT22;35450;44.518;7.466;2022-09-17T21:38:53;18.80;47.40
49549;DHT22;35450;44.518;7.466;2022-09-17T21:41:57;18.80;47.40
49549;DHT22;35450;44.518;7.466;2022-09-17T21:45:01;18.90;48.20
49549;DHT22;35450;44.518;7.466;2022-09-17T21:48:05;18.70;48.20
49549;DHT22;35450;44.518;7.466;2022-09-17T21:51:15;18.80;47.10
49549;DHT22;35450;44.518;7.466;2022-09-17T21:54:19;18.70;47.90
49549;DHT22;35450;44.518;7.466;2022-09-17T21:57:23;18.40;47.90
49549;DHT22;35450;44.518;7.466;2022-09-17T22:00:27;18.50;47.70
49549;DHT22;35450;44.518;7.466;2022-09-17T22:03:32;18.40;47.20
49549;DHT22;35450;44.518;7.466;2022-09-17T22:06:36;18.50;46.80
49549;DHT22;35450;44.518;7.466;2022-09-17T22:09:40;18.40;46.90
49549;DHT22;35450;44.518;7.466;2022-09-17T22:12:44;18.30;46.60
49549;DHT22;35450;44.518;7.466;2022-09-17T22:15:58;18.30;46.80
49549;DHT22;35450;44.518;7.466;2022-09-17T22:19:07;18.30;46.70
49549;DHT22;35450;44.518;7.466;2022-09-17T22:22:12;18.30;46.60
49549;DHT22;35450;44.518;7.466;2022-09-17T22:25:16;18.30;46.40
49549;DHT22;35450;44.518;7.466;2022-09-17T22:28:22;18.40;47.50
49549;DHT22;35450;44.518;7.466;2022-09-17T22:31:26;18.40;48.80
49549;DHT22;35450;44.518;7.466;2022-09-17T22:34:30;18.20;49.60
49549;DHT22;35450;44.518;7.466;2022-09-17T22:37:34;18.20;49.50